createdAt,value
2024-02-02T00:02:16.144Z,34.10
2024-02-02T00:04:51.790Z,33.20
2024-02-02T00:07:28.703Z,33.60
2024-02-02T00:10:06.497Z,28.90
2024-02-02T00:12:42.609Z,33.00
2024-02-02T00:15:20.649Z,33.00
2024-02-02T00:17:55.874Z,31.10
2024-02-02T00:20:30.017Z,34.40
2024-02-02T00:23:05.755Z,34.30
2024-02-02T00:25:39.927Z,33.60
2024-02-02T00:28:17.397Z,33.70
2024-02-02T00:30:52.669Z,32.70
2024-02-02T00:33:26.971Z,33.20
2024-02-02T00:36:03.587Z,34.30
2024-02-02T00:39:08.307Z,32.90
2024-02-02T00:41:56.400Z,35.30
2024-02-02T00:44:31.883Z,34.80
2024-02-02T00:47:07.889Z,34.90
2024-02-02T00:49:43.430Z,31.00
2024-02-02T00:52:27.485Z,35.40
2024-02-02T00:55:03.415Z,36.50
2024-02-02T00:57:38.442Z,35.20
2024-02-02T01:00:18.323Z,34.00
2024-02-02T01:02:58.304Z,35.70
2024-02-02T01:05:33.195Z,36.60
2024-02-02T01:08:09.218Z,37.10
2024-02-02T01:10:46.642Z,34.90
2024-02-02T01:13:20.177Z,35.70
2024-02-02T01:16:00.796Z,34.60
2024-02-02T01:18:36.082Z,40.70
2024-02-02T01:21:08.939Z,36.90
2024-02-02T01:23:42.704Z,32.60
2024-02-02T01:26:17.773Z,35.60
2024-02-02T01:28:53.667Z,38.30
2024-02-02T01:31:28.453Z,33.00
2024-02-02T01:34:03.936Z,38.80
2024-02-02T01:36:40.108Z,37.30
2024-02-02T01:39:15.168Z,39.30
2024-02-02T01:41:50.492Z,37.50
2024-02-02T01:44:26.824Z,36.60
2024-02-02T01:47:02.453Z,37.60
2024-02-02T01:49:41.102Z,40.50
2024-02-02T01:52:19.517Z,38.10
2024-02-02T01:54:54.028Z,41.00
2024-02-02T02:00:01.638Z,34.40
2024-02-02T02:02:45.671Z,39.20
2024-02-02T02:05:20.132Z,35.80
2024-02-02T02:07:56.508Z,37.40
2024-02-02T02:10:30.308Z,38.60
2024-02-02T02:13:03.464Z,39.10
2024-02-02T02:15:36.495Z,40.60
2024-02-02T02:18:10.205Z,35.00
2024-02-02T02:20:44.679Z,39.80
2024-02-02T02:25:49.954Z,40.40
2024-02-02T02:28:33.933Z,41.40
2024-02-02T02:31:17.306Z,40.50
2024-02-02T02:33:52.603Z,42.90
2024-02-02T02:36:26.389Z,39.10
2024-02-02T02:39:01.050Z,39.80
2024-02-02T02:41:35.571Z,38.10
2024-02-02T02:44:11.368Z,39.20
2024-02-02T02:46:45.879Z,39.50
2024-02-02T02:49:20.249Z,38.20
2024-02-02T02:51:52.595Z,39.30
2024-02-02T02:54:24.585Z,37.60
2024-02-02T02:57:00.890Z,44.70
2024-02-02T02:59:38.904Z,38.90
2024-02-02T03:02:13.888Z,38.20
2024-02-02T03:04:47.883Z,39.30
2024-02-02T03:07:21.807Z,39.70
2024-02-02T03:10:13.275Z,37.90
2024-02-02T03:13:05.926Z,39.10
2024-02-02T03:15:43.727Z,38.30
2024-02-02T03:18:17.424Z,40.30
2024-02-02T03:20:53.141Z,39.20
2024-02-02T03:23:29.040Z,43.80
2024-02-02T03:26:06.291Z,40.50
2024-02-02T03:28:46.812Z,42.50
2024-02-02T03:31:21.844Z,41.60
2024-02-02T03:33:55.916Z,42.30
2024-02-02T03:36:32.258Z,40.30
2024-02-02T03:39:09.575Z,40.20
2024-02-02T03:41:43.972Z,39.50
2024-02-02T03:44:17.956Z,38.50
2024-02-02T03:46:53.492Z,43.30
2024-02-02T03:49:28.592Z,41.10
2024-02-02T03:52:03.354Z,36.50
2024-02-02T03:54:37.715Z,43.30
2024-02-02T03:57:12.857Z,42.90
2024-02-02T03:59:48.690Z,40.50
2024-02-02T04:02:23.971Z,44.70
2024-02-02T04:05:00.372Z,44.90
2024-02-02T04:07:33.708Z,43.40
2024-02-02T04:10:24.035Z,43.40
2024-02-02T04:13:03.950Z,43.10
2024-02-02T04:15:41.453Z,42.60
2024-02-02T04:18:19.783Z,44.70
2024-02-02T04:20:57.371Z,44.30
2024-02-02T04:23:31.809Z,45.20
2024-02-02T04:26:24.637Z,46.30
2024-02-02T04:31:36.172Z,43.80
2024-02-02T04:34:13.152Z,46.30
2024-02-02T04:36:46.946Z,39.60
2024-02-02T04:39:23.401Z,41.60
2024-02-02T04:42:00.228Z,40.70
2024-02-02T04:44:33.966Z,43.40
2024-02-02T04:47:10.962Z,41.00
2024-02-02T04:49:44.930Z,40.80
2024-02-02T04:52:20.105Z,38.30
2024-02-02T04:54:57.785Z,37.50
2024-02-02T04:57:31.170Z,37.00
2024-02-02T05:00:10.905Z,40.40
2024-02-02T05:02:50.226Z,41.10
2024-02-02T05:05:25.762Z,40.10
2024-02-02T05:08:01.790Z,36.20
2024-02-02T05:10:41.865Z,38.80
2024-02-02T05:13:20.653Z,40.50
2024-02-02T05:16:23.154Z,38.50
2024-02-02T05:19:19.071Z,41.40
2024-02-02T05:22:03.724Z,39.80
2024-02-02T05:24:45.102Z,40.10
2024-02-02T05:27:22.907Z,37.70
2024-02-02T05:30:02.531Z,34.30
2024-02-02T05:32:39.309Z,34.20
2024-02-02T05:35:16.751Z,34.60
2024-02-02T05:37:51.769Z,36.20
2024-02-02T05:40:37.905Z,34.50
2024-02-02T05:43:19.457Z,33.70
2024-02-02T05:45:56.123Z,34.20
2024-02-02T05:48:31.255Z,34.70
2024-02-02T05:51:07.298Z,34.90
2024-02-02T05:53:42.875Z,36.00
2024-02-02T05:56:21.087Z,32.40
2024-02-02T05:59:09.679Z,32.10
2024-02-02T06:01:59.448Z,33.00
2024-02-02T06:04:40.265Z,30.20
2024-02-02T06:07:16.323Z,29.00
2024-02-02T06:09:52.928Z,31.70
2024-02-02T06:12:28.311Z,31.00
2024-02-02T06:15:02.041Z,29.70
2024-02-02T06:17:41.176Z,28.00
2024-02-02T06:20:17.800Z,30.50
2024-02-02T06:22:52.220Z,30.90
2024-02-02T06:28:12.104Z,26.80
2024-02-02T06:30:59.113Z,26.40
2024-02-02T06:33:36.692Z,26.30
2024-02-02T06:36:23.139Z,26.70
2024-02-02T06:39:06.308Z,28.10
2024-02-02T06:41:41.264Z,26.80
2024-02-02T06:46:52.690Z,26.80
2024-02-02T06:49:30.859Z,29.10
2024-02-02T06:52:07.465Z,27.10
2024-02-02T06:54:42.910Z,24.70
2024-02-02T06:57:21.467Z,26.60
2024-02-02T06:59:59.546Z,23.90
2024-02-02T07:02:36.512Z,25.00
2024-02-02T07:05:29.726Z,22.70
2024-02-02T07:08:08.370Z,22.20
2024-02-02T07:10:42.853Z,22.40
2024-02-02T07:13:16.366Z,21.90
2024-02-02T07:15:49.171Z,22.00
2024-02-02T07:18:38.630Z,21.10
2024-02-02T07:21:17.008Z,20.80
2024-02-02T07:23:53.941Z,20.70
2024-02-02T07:26:34.373Z,20.50
2024-02-02T07:29:27.677Z,20.80
2024-02-02T07:32:03.595Z,19.80
2024-02-02T07:34:45.378Z,19.30
2024-02-02T07:37:35.638Z,18.70
2024-02-02T07:40:40.687Z,18.50
2024-02-02T07:43:17.462Z,17.40
2024-02-02T07:45:55.514Z,19.50
2024-02-02T07:48:31.501Z,18.10
2024-02-02T07:51:06.772Z,16.20
2024-02-02T07:53:42.964Z,15.80
2024-02-02T07:56:26.017Z,17.30
2024-02-02T07:59:24.833Z,16.80
2024-02-02T08:02:34.065Z,15.60
2024-02-02T08:05:32.144Z,15.80
2024-02-02T08:08:54.555Z,16.40
2024-02-02T08:11:31.200Z,16.70
2024-02-02T08:14:12.786Z,15.80
2024-02-02T08:17:14.298Z,16.40
2024-02-02T08:20:01.833Z,15.60
2024-02-02T08:23:02.565Z,16.30
2024-02-02T08:25:51.731Z,16.70
2024-02-02T08:28:41.547Z,17.60
2024-02-02T08:31:28.487Z,17.50
2024-02-02T08:34:02.308Z,16.20
2024-02-02T08:37:10.864Z,16.20
2024-02-02T08:40:27.538Z,16.80
2024-02-02T08:43:00.318Z,16.80
2024-02-02T08:49:59.088Z,16.40
2024-02-02T08:52:47.999Z,15.60
2024-02-02T08:55:47.975Z,16.00
2024-02-02T08:58:33.017Z,18.10
2024-02-02T09:01:39.492Z,17.70
2024-02-02T09:04:36.700Z,19.80
2024-02-02T09:07:23.519Z,19.50
2024-02-02T09:10:24.503Z,16.90
2024-02-02T09:17:13.314Z,17.40
2024-02-02T09:20:15.253Z,14.50
2024-02-02T09:22:56.367Z,13.80
2024-02-02T09:25:51.088Z,12.40
2024-02-02T09:28:41.256Z,13.10
2024-02-02T09:31:53.441Z,12.90
2024-02-02T09:34:50.204Z,14.90
2024-02-02T09:37:43.017Z,14.10
2024-02-02T09:43:39.762Z,15.00
2024-02-02T09:46:24.964Z,14.30
2024-02-02T09:49:24.332Z,13.10
2024-02-02T09:52:04.265Z,14.70
2024-02-02T09:54:41.991Z,13.30
2024-02-02T09:57:47.047Z,13.80
2024-02-02T10:00:36.429Z,12.00
2024-02-02T10:03:22.699Z,10.70
2024-02-02T10:06:13.285Z,9.90
2024-02-02T10:09:23.852Z,9.10
2024-02-02T10:12:09.641Z,9.00
2024-02-02T10:15:11.308Z,8.40
2024-02-02T10:18:42.460Z,7.80
2024-02-02T10:21:32.712Z,8.50
2024-02-02T10:28:10.185Z,7.70
2024-02-02T10:31:13.787Z,6.90
2024-02-02T10:34:19.362Z,7.60
2024-02-02T10:37:08.070Z,8.30
2024-02-02T10:40:05.173Z,7.70
2024-02-02T10:42:54.926Z,7.70
2024-02-02T10:45:38.178Z,8.20
2024-02-02T10:48:30.941Z,7.90
2024-02-02T10:51:16.719Z,8.10
2024-02-02T10:54:02.358Z,7.00
2024-02-02T10:56:46.839Z,7.30
2024-02-02T10:59:30.485Z,6.80
2024-02-02T11:02:24.625Z,7.00
2024-02-02T11:05:11.387Z,5.70
2024-02-02T11:07:53.130Z,6.40
2024-02-02T11:10:36.238Z,6.00
2024-02-02T11:13:16.775Z,6.70
2024-02-02T11:16:14.278Z,6.60
2024-02-02T11:19:02.657Z,6.90
2024-02-02T11:26:04.757Z,6.50
2024-02-02T11:39:36.651Z,6.30
2024-02-02T11:44:42.344Z,6.80
2024-02-02T11:47:15.296Z,5.90
2024-02-02T11:49:52.306Z,5.50
2024-02-02T11:52:29.416Z,5.00
2024-02-02T11:55:10.081Z,5.80
2024-02-02T11:57:45.361Z,5.60
2024-02-02T12:00:24.085Z,5.30
2024-02-02T12:03:10.981Z,6.60
2024-02-02T12:05:52.761Z,6.30
2024-02-02T12:08:30.913Z,5.60
2024-02-02T12:11:06.531Z,5.00
2024-02-02T12:13:42.981Z,4.90
2024-02-02T12:16:16.476Z,4.50
2024-02-02T12:18:49.270Z,6.50
2024-02-02T12:21:22.395Z,9.10
2024-02-02T12:23:54.879Z,9.20
2024-02-02T12:26:27.542Z,7.60
2024-02-02T12:29:00.103Z,5.90
2024-02-02T12:31:34.308Z,5.80
2024-02-02T12:34:06.821Z,4.60
2024-02-02T12:36:39.409Z,4.00
2024-02-02T12:39:12.320Z,5.20
2024-02-02T12:41:45.247Z,4.10
2024-02-02T12:44:17.805Z,3.70
2024-02-02T12:46:52.691Z,4.40
2024-02-02T12:49:26.672Z,8.60
2024-02-02T12:52:01.679Z,6.70
2024-02-02T12:54:36.681Z,5.50
2024-02-02T12:57:11.783Z,4.10
2024-02-02T12:59:46.334Z,4.10
2024-02-02T13:02:22.077Z,4.90
2024-02-02T13:05:02.266Z,6.30
2024-02-02T13:07:39.350Z,6.90
2024-02-02T13:10:12.531Z,5.70
2024-02-02T13:12:52.458Z,4.50
2024-02-02T13:15:37.542Z,4.60
2024-02-02T13:18:24.181Z,4.30
2024-02-02T13:31:56.147Z,5.00
2024-02-02T13:34:36.828Z,5.20
2024-02-02T13:37:11.065Z,3.80
2024-02-02T13:39:48.360Z,3.30
2024-02-02T13:42:21.049Z,4.20
2024-02-02T13:44:58.086Z,5.00
2024-02-02T13:54:35.165Z,3.40
2024-02-02T13:57:10.591Z,3.90
2024-02-02T13:59:48.304Z,3.80
2024-02-02T14:02:25.733Z,7.10
2024-02-02T14:05:01.241Z,4.60
2024-02-02T14:07:36.842Z,5.00
2024-02-02T14:10:13.188Z,5.10
2024-02-02T14:12:46.774Z,4.20
2024-02-02T14:19:08.137Z,5.90
2024-02-02T14:21:43.191Z,7.20
2024-02-02T14:24:17.202Z,10.20
2024-02-02T14:26:58.540Z,12.30
2024-02-02T14:29:42.935Z,14.30
2024-02-02T14:32:15.576Z,13.30
2024-02-02T14:34:54.220Z,10.90
2024-02-02T14:37:36.934Z,13.30
2024-02-02T14:40:18.025Z,10.30
2024-02-02T14:42:52.474Z,24.20
2024-02-02T14:45:26.214Z,18.90
2024-02-02T14:48:04.903Z,9.80
2024-02-02T14:50:40.114Z,10.00
2024-02-02T14:53:18.747Z,5.10
2024-02-02T14:56:23.794Z,6.00
2024-02-02T14:59:09.603Z,4.50
2024-02-02T15:01:45.847Z,4.00
2024-02-02T15:04:22.181Z,4.30
2024-02-02T15:07:12.616Z,2.50
2024-02-02T15:09:54.425Z,2.70
2024-02-02T15:12:26.909Z,6.30
2024-02-02T15:14:59.989Z,10.40
2024-02-02T15:17:37.159Z,12.20
2024-02-02T15:20:12.054Z,10.50
2024-02-02T15:22:45.784Z,9.40
2024-02-02T15:25:19.357Z,6.20
2024-02-02T15:28:00.903Z,3.80
2024-02-02T15:30:35.141Z,3.90
2024-02-02T15:35:42.798Z,3.70
2024-02-02T15:38:20.660Z,3.60
2024-02-02T15:40:55.697Z,11.20
2024-02-02T15:43:29.845Z,6.70
2024-02-02T15:46:25.714Z,6.00
2024-02-02T15:48:58.730Z,4.70
2024-02-02T15:51:32.287Z,6.00
2024-02-02T15:54:07.658Z,9.10
2024-02-02T15:56:40.575Z,5.70
2024-02-02T15:59:16.413Z,6.90
2024-02-02T16:01:52.419Z,10.20
2024-02-02T16:04:25.467Z,9.20
2024-02-02T16:07:05.786Z,12.80
2024-02-02T16:09:41.223Z,30.40
2024-02-02T16:12:18.028Z,28.00
2024-02-02T16:15:03.494Z,22.40
2024-02-02T16:17:51.538Z,14.80
2024-02-02T16:20:24.721Z,11.00
2024-02-02T16:26:38.883Z,13.50
2024-02-02T16:29:12.276Z,7.90
2024-02-02T16:31:47.322Z,7.40
2024-02-02T16:34:20.271Z,9.70
2024-02-02T16:37:07.704Z,14.10
2024-02-02T16:39:45.497Z,18.90
2024-02-02T16:42:19.413Z,13.80
2024-02-02T16:44:54.591Z,22.50
2024-02-02T16:47:28.022Z,17.10
2024-02-02T16:50:01.818Z,35.50
2024-02-02T16:52:35.492Z,12.70
2024-02-02T16:58:05.502Z,10.40
2024-02-02T17:00:38.394Z,13.50
2024-02-02T17:03:13.031Z,15.80
2024-02-02T17:05:47.933Z,13.40
2024-02-02T17:08:22.653Z,19.90
2024-02-02T17:10:56.221Z,31.60
2024-02-02T17:13:29.255Z,20.20
2024-02-02T17:16:07.197Z,44.00
2024-02-02T17:18:42.274Z,54.30
2024-02-02T17:21:16.756Z,80.30
2024-02-02T17:23:51.337Z,59.50
2024-02-02T17:26:25.545Z,41.00
2024-02-02T17:29:03.780Z,458.50
2024-02-02T17:34:18.066Z,239.70
2024-02-02T17:36:53.203Z,508.00
2024-02-02T17:39:27.406Z,476.00
2024-02-02T17:42:01.442Z,203.70
2024-02-02T17:44:35.745Z,189.80
2024-02-02T17:47:10.249Z,56.10
2024-02-02T17:49:49.643Z,34.00
2024-02-02T17:52:25.575Z,32.30
2024-02-02T17:54:58.760Z,298.30
2024-02-02T17:57:37.371Z,118.90
2024-02-02T18:00:12.985Z,40.90
2024-02-02T18:02:47.605Z,11.10
2024-02-02T18:05:44.951Z,18.80
2024-02-02T18:08:30.768Z,114.50
2024-02-02T18:11:12.228Z,48.30
2024-02-02T18:13:47.839Z,14.60
2024-02-02T18:16:35.990Z,101.70
2024-02-02T18:19:17.938Z,138.90
2024-02-02T18:21:51.182Z,135.40
2024-02-02T18:24:31.552Z,197.40
2024-02-02T18:27:07.576Z,188.70
2024-02-02T18:29:41.373Z,111.70
2024-02-02T18:32:16.119Z,155.40
2024-02-02T18:34:50.039Z,121.60
2024-02-02T18:37:23.999Z,63.40
2024-02-02T18:39:58.668Z,49.40
2024-02-02T18:42:32.320Z,43.20
2024-02-02T18:45:06.108Z,60.90
2024-02-02T18:47:40.157Z,29.90
2024-02-02T18:50:15.363Z,16.70
2024-02-02T18:52:48.748Z,20.40
2024-02-02T18:55:21.907Z,14.40
2024-02-02T18:57:54.894Z,16.00
2024-02-02T19:00:27.600Z,14.50
2024-02-02T19:03:01.290Z,14.10
2024-02-02T19:05:35.294Z,21.30
2024-02-02T19:08:09.713Z,15.60
2024-02-02T19:10:45.705Z,9.80
2024-02-02T19:13:20.054Z,8.90
2024-02-02T19:15:54.083Z,6.70
2024-02-02T19:18:28.462Z,6.50
2024-02-02T19:21:02.537Z,7.90
2024-02-02T19:23:35.138Z,7.30
2024-02-02T19:26:14.410Z,8.60
2024-02-02T19:28:52.057Z,8.10
2024-02-02T19:31:26.303Z,9.90
2024-02-02T19:33:59.401Z,9.40
2024-02-02T19:36:33.979Z,9.70
2024-02-02T19:39:09.773Z,9.00
2024-02-02T19:41:43.546Z,8.30
2024-02-02T19:44:17.417Z,7.00
2024-02-02T19:46:51.504Z,7.90
2024-02-02T19:49:24.648Z,6.00
2024-02-02T19:51:58.158Z,7.00
2024-02-02T19:54:34.445Z,6.60
2024-02-02T19:57:09.346Z,9.40
2024-02-02T19:59:43.488Z,8.30
2024-02-02T20:02:19.276Z,10.90
2024-02-02T20:04:51.992Z,6.70
2024-02-02T20:07:28.998Z,8.00
2024-02-02T20:10:06.681Z,11.00
2024-02-02T20:12:40.732Z,8.70
2024-02-02T20:15:15.726Z,6.90
2024-02-02T20:17:49.434Z,4.80
2024-02-02T20:20:24.171Z,5.40
2024-02-02T20:22:58.601Z,5.30
2024-02-02T20:25:34.586Z,5.90
2024-02-02T20:28:08.733Z,9.60
2024-02-02T20:30:41.686Z,9.30
2024-02-02T20:33:16.716Z,7.10
2024-02-02T20:38:22.421Z,8.10
2024-02-02T20:40:56.022Z,9.60
2024-02-02T20:43:30.477Z,7.20
2024-02-02T20:46:04.144Z,7.20
2024-02-02T20:48:37.524Z,8.30
2024-02-02T20:51:13.257Z,8.40
2024-02-02T20:53:50.562Z,7.90
2024-02-02T20:56:27.030Z,12.80
2024-02-02T20:59:13.415Z,7.90
2024-02-02T21:02:11.234Z,7.60
2024-02-02T21:04:45.883Z,8.50
2024-02-02T21:07:19.607Z,8.00
2024-02-02T21:09:53.247Z,7.60
2024-02-02T21:12:27.627Z,7.10
2024-02-02T21:15:01.977Z,10.60
2024-02-02T21:17:38.193Z,9.80
2024-02-02T21:20:13.982Z,8.70
2024-02-02T21:22:48.394Z,8.00
2024-02-02T21:25:22.207Z,10.10
2024-02-02T21:27:55.820Z,12.30
2024-02-02T21:30:29.637Z,17.90
2024-02-02T21:33:03.103Z,13.40
2024-02-02T21:35:36.603Z,13.50
2024-02-02T21:38:10.267Z,12.40
2024-02-02T21:40:43.878Z,14.30
2024-02-02T21:43:18.160Z,10.00
2024-02-02T21:45:53.130Z,8.10
2024-02-02T21:48:26.751Z,7.40
2024-02-02T21:51:00.349Z,8.80
2024-02-02T21:53:33.668Z,8.10
2024-02-02T21:56:07.782Z,7.60
2024-02-02T21:58:41.934Z,9.90
2024-02-02T22:08:16.975Z,8.10
2024-02-02T22:13:22.870Z,10.60
2024-02-02T22:15:56.951Z,11.40
2024-02-02T22:18:31.533Z,9.50
2024-02-02T22:21:06.248Z,8.70
2024-02-02T22:23:40.295Z,16.60
2024-02-02T22:26:14.590Z,13.70
2024-02-02T22:28:47.994Z,11.50
2024-02-02T22:31:25.039Z,10.00
2024-02-02T22:33:58.486Z,6.90
2024-02-02T22:36:31.945Z,6.00
2024-02-02T22:39:04.533Z,5.00
2024-02-02T22:41:38.024Z,5.70
2024-02-02T22:44:11.005Z,6.00
2024-02-02T22:46:44.416Z,7.10
2024-02-02T22:49:17.665Z,5.50
2024-02-02T22:51:51.278Z,6.10
2024-02-02T22:54:25.417Z,5.50
2024-02-02T23:00:43.154Z,5.00
2024-02-02T23:03:17.556Z,5.00
2024-02-02T23:05:54.100Z,3.80
2024-02-02T23:08:29.515Z,4.70
2024-02-02T23:11:04.303Z,4.70
2024-02-02T23:13:38.752Z,5.50
2024-02-02T23:18:45.760Z,4.30
2024-02-02T23:21:19.070Z,4.00
2024-02-02T23:23:55.608Z,4.30
2024-02-02T23:26:29.899Z,4.60
2024-02-02T23:29:05.968Z,5.10
2024-02-02T23:31:40.780Z,4.30
2024-02-02T23:34:14.789Z,4.40
2024-02-02T23:36:50.405Z,4.30
2024-02-02T23:39:24.307Z,4.40
2024-02-02T23:41:58.578Z,4.40
2024-02-02T23:44:32.365Z,4.40
2024-02-02T23:47:06.714Z,4.50
2024-02-02T23:49:42.317Z,4.40
2024-02-02T23:52:18.141Z,4.30
2024-02-02T23:54:52.888Z,4.70
2024-02-02T23:57:27.857Z,5.60
